VOML/IXE METAR and TAF weather

Enter ICAO airport designator
Station Type Date Time Source
VOML METAR 2021/03/02 03:30 UTC NOAA

VOML 020330Z 06003KT 3000 BR FEW015 27/25 Q1014 BECMG 5000 BR


Station Type Date Time Source
VOML Decoded METAR 2021/03/02 03:30 UTC NOAA

Mangalore / Bajpe, India (VOML) 12-55N 074-53E 102M
Mar 01, 2021 - 10:30 PM EST / 2021.03.02 0330 UTC
Wind: from the ENE (060 degrees) at 3 MPH (3 KT):0
Visibility: 1 mile(s):0
Sky conditions: mostly clear
Weather: mist
Temperature: 80 F (27 C)
Dew Point: 77 F (25 C)
Relative Humidity: 88%
Pressure (altimeter): 29.94 in. Hg (1014 hPa)
ob: VOML 020330Z 06003KT 3000 BR FEW015 27/25 Q1014 BECMG 5000 BR
cycle: 3

Station Type Date Time Source
VOML TAF 2021/03/01 18:00 UTC NOAA

TAF VOML 011700Z 0118/0224 VRB02KT 6000 FEW015
BECMG 0123/0124 09005KT 4000 BR SCT008
TEMPO 0200/0203 1500 BR SCT005
BECMG 0203/0204 6000 FEW015
BECMG 0208/0209 27010KT
BECMG 0221/0222 09005KT

Example: see airport list